Terminal Aerodrome Forecast
Issued by NWS Portland, ME

Current Version | Previous Version | Text Only | Print | Product List | Glossary On
Versions: 1 2 3 4 5 6 7 8 9 10 11 12 13 14 15 16 17 18 19 20 21 22
000 FTUS41 KGYX 241300 AAB TAFCON TAF AMD KCON 241303Z 2413/2512 33007KT P6SM BKN020 OVC030 FM241400 33010KT P6SM SCT030 BKN070 OVC150 FM241600 33010KT P6SM SCT150=

USA.gov is the U.S. government's official web portal to all federal, state and local government web resources and services.